sensor_id;sensor_type;location;lat;lon;timestamp;temperature;humidity
15217;DHT22;7711;46.634;14.318;2022-12-18T00:02:27;-3.10;1.00
15217;DHT22;7711;46.634;14.318;2022-12-18T00:04:54;-3.00;1.00
15217;DHT22;7711;46.634;14.318;2022-12-18T00:07:23;-3.00;1.00
15217;DHT22;7711;46.634;14.318;2022-12-18T00:09:50;-3.10;1.00
15217;DHT22;7711;46.634;14.318;2022-12-18T00:12:17;-3.10;1.00
15217;DHT22;7711;46.634;14.318;2022-12-18T00:14:45;-3.10;1.00
15217;DHT22;7711;46.634;14.318;2022-12-18T00:17:12;-3.10;1.00
15217;DHT22;7711;46.634;14.318;2022-12-18T00:19:40;-3.10;1.00
15217;DHT22;7711;46.634;14.318;2022-12-18T00:22:07;-3.10;1.00
15217;DHT22;7711;46.634;14.318;2022-12-18T00:24:35;-3.20;1.00
15217;DHT22;7711;46.634;14.318;2022-12-18T00:27:02;-3.20;1.00
15217;DHT22;7711;46.634;14.318;2022-12-18T00:29:29;-3.00;1.00
15217;DHT22;7711;46.634;14.318;2022-12-18T00:31:56;-3.30;1.00
15217;DHT22;7711;46.634;14.318;2022-12-18T00:34:24;-3.20;1.00
15217;DHT22;7711;46.634;14.318;2022-12-18T00:36:51;-3.20;1.00
15217;DHT22;7711;46.634;14.318;2022-12-18T00:39:18;-3.30;1.00
15217;DHT22;7711;46.634;14.318;2022-12-18T00:41:46;-3.30;1.00
15217;DHT22;7711;46.634;14.318;2022-12-18T00:44:33;-3.30;1.00
15217;DHT22;7711;46.634;14.318;2022-12-18T00:47:00;-3.20;1.00
15217;DHT22;7711;46.634;14.318;2022-12-18T00:49:27;-3.20;1.00
15217;DHT22;7711;46.634;14.318;2022-12-18T00:51:55;-3.10;1.00
15217;DHT22;7711;46.634;14.318;2022-12-18T00:54:23;-3.10;1.00
15217;DHT22;7711;46.634;14.318;2022-12-18T00:56:51;-3.20;1.00
15217;DHT22;7711;46.634;14.318;2022-12-18T00:59:18;-3.20;1.00
15217;DHT22;7711;46.634;14.318;2022-12-18T01:01:46;-3.10;1.00
15217;DHT22;7711;46.634;14.318;2022-12-18T01:04:14;-3.10;1.00
15217;DHT22;7711;46.634;14.318;2022-12-18T01:06:41;-3.10;1.00
15217;DHT22;7711;46.634;14.318;2022-12-18T01:09:08;-3.00;1.00
15217;DHT22;7711;46.634;14.318;2022-12-18T01:11:35;-2.90;1.00
15217;DHT22;7711;46.634;14.318;2022-12-18T01:14:04;-2.90;1.00
15217;DHT22;7711;46.634;14.318;2022-12-18T01:16:34;-2.90;1.00
15217;DHT22;7711;46.634;14.318;2022-12-18T01:19:01;-2.90;1.00
15217;DHT22;7711;46.634;14.318;2022-12-18T01:21:28;-2.80;1.00
15217;DHT22;7711;46.634;14.318;2022-12-18T01:23:56;-2.80;1.00
15217;DHT22;7711;46.634;14.318;2022-12-18T01:26:24;-2.80;1.00
15217;DHT22;7711;46.634;14.318;2022-12-18T01:28:54;-2.70;1.00
15217;DHT22;7711;46.634;14.318;2022-12-18T01:31:25;-2.70;1.00
15217;DHT22;7711;46.634;14.318;2022-12-18T01:33:53;-2.70;1.00
15217;DHT22;7711;46.634;14.318;2022-12-18T01:36:22;-2.60;1.00
15217;DHT22;7711;46.634;14.318;2022-12-18T01:38:49;-2.60;1.00
15217;DHT22;7711;46.634;14.318;2022-12-18T01:41:18;-2.60;1.00
15217;DHT22;7711;46.634;14.318;2022-12-18T01:43:48;-2.60;1.00
15217;DHT22;7711;46.634;14.318;2022-12-18T01:46:16;-2.60;1.00
15217;DHT22;7711;46.634;14.318;2022-12-18T01:48:47;-2.60;1.00
15217;DHT22;7711;46.634;14.318;2022-12-18T01:51:15;-2.50;1.00
15217;DHT22;7711;46.634;14.318;2022-12-18T01:53:43;-2.50;1.00
15217;DHT22;7711;46.634;14.318;2022-12-18T01:56:14;-2.40;1.00
15217;DHT22;7711;46.634;14.318;2022-12-18T01:58:48;-2.40;1.00
15217;DHT22;7711;46.634;14.318;2022-12-18T02:01:17;-2.50;1.00
15217;DHT22;7711;46.634;14.318;2022-12-18T02:03:45;-2.50;1.00
15217;DHT22;7711;46.634;14.318;2022-12-18T02:06:16;-2.50;1.00
15217;DHT22;7711;46.634;14.318;2022-12-18T02:09:02;-2.50;1.00
15217;DHT22;7711;46.634;14.318;2022-12-18T02:11:39;-2.40;1.00
15217;DHT22;7711;46.634;14.318;2022-12-18T02:14:17;-2.30;1.00
15217;DHT22;7711;46.634;14.318;2022-12-18T02:16:49;-2.20;1.00
15217;DHT22;7711;46.634;14.318;2022-12-18T02:19:36;-2.30;1.00
15217;DHT22;7711;46.634;14.318;2022-12-18T02:22:17;-2.30;1.00
15217;DHT22;7711;46.634;14.318;2022-12-18T02:24:58;-2.20;1.00
15217;DHT22;7711;46.634;14.318;2022-12-18T02:27:29;-2.30;1.00
15217;DHT22;7711;46.634;14.318;2022-12-18T02:29:59;-2.30;1.00
15217;DHT22;7711;46.634;14.318;2022-12-18T02:32:30;-2.40;1.00
15217;DHT22;7711;46.634;14.318;2022-12-18T02:34:59;-2.40;1.00
15217;DHT22;7711;46.634;14.318;2022-12-18T02:37:27;-2.40;1.00
15217;DHT22;7711;46.634;14.318;2022-12-18T02:39:56;-2.40;1.00
15217;DHT22;7711;46.634;14.318;2022-12-18T02:42:26;-2.40;1.00
15217;DHT22;7711;46.634;14.318;2022-12-18T02:44:56;-2.30;1.00
15217;DHT22;7711;46.634;14.318;2022-12-18T02:47:24;-2.30;1.00
15217;DHT22;7711;46.634;14.318;2022-12-18T02:49:59;-2.20;1.00
15217;DHT22;7711;46.634;14.318;2022-12-18T02:52:33;-2.20;1.00
15217;DHT22;7711;46.634;14.318;2022-12-18T02:55:12;-2.20;1.00
15217;DHT22;7711;46.634;14.318;2022-12-18T02:57:45;-2.20;1.00
15217;DHT22;7711;46.634;14.318;2022-12-18T03:00:17;-2.10;1.00
15217;DHT22;7711;46.634;14.318;2022-12-18T03:02:48;-2.10;1.00
15217;DHT22;7711;46.634;14.318;2022-12-18T03:05:21;-2.10;1.00
15217;DHT22;7711;46.634;14.318;2022-12-18T03:07:55;-2.10;1.00
15217;DHT22;7711;46.634;14.318;2022-12-18T03:10:27;-2.10;1.00
15217;DHT22;7711;46.634;14.318;2022-12-18T03:13:00;-2.00;1.00
15217;DHT22;7711;46.634;14.318;2022-12-18T03:15:31;-2.00;1.00
15217;DHT22;7711;46.634;14.318;2022-12-18T03:18:04;-2.00;1.00
15217;DHT22;7711;46.634;14.318;2022-12-18T03:20:35;-2.00;1.00
15217;DHT22;7711;46.634;14.318;2022-12-18T03:23:08;-2.00;1.00
15217;DHT22;7711;46.634;14.318;2022-12-18T03:25:40;-2.00;1.00
15217;DHT22;7711;46.634;14.318;2022-12-18T03:28:12;-1.90;1.00
15217;DHT22;7711;46.634;14.318;2022-12-18T03:30:41;-1.90;1.00
15217;DHT22;7711;46.634;14.318;2022-12-18T03:33:14;-1.90;1.00
15217;DHT22;7711;46.634;14.318;2022-12-18T03:35:45;-1.90;1.00
15217;DHT22;7711;46.634;14.318;2022-12-18T03:38:13;-2.00;1.00
15217;DHT22;7711;46.634;14.318;2022-12-18T03:40:47;-1.90;1.00
15217;DHT22;7711;46.634;14.318;2022-12-18T03:43:23;-2.00;1.00
15217;DHT22;7711;46.634;14.318;2022-12-18T03:46:00;-2.00;1.00
15217;DHT22;7711;46.634;14.318;2022-12-18T03:48:32;-2.00;1.00
15217;DHT22;7711;46.634;14.318;2022-12-18T03:51:07;-1.90;1.00
15217;DHT22;7711;46.634;14.318;2022-12-18T03:53:39;-1.90;1.00
15217;DHT22;7711;46.634;14.318;2022-12-18T03:56:09;-1.90;1.00
15217;DHT22;7711;46.634;14.318;2022-12-18T03:58:37;-1.80;1.00
15217;DHT22;7711;46.634;14.318;2022-12-18T04:01:13;-1.70;1.00
15217;DHT22;7711;46.634;14.318;2022-12-18T04:03:42;-1.80;1.00
15217;DHT22;7711;46.634;14.318;2022-12-18T04:06:12;-1.80;1.00
15217;DHT22;7711;46.634;14.318;2022-12-18T04:08:41;-1.80;1.00
15217;DHT22;7711;46.634;14.318;2022-12-18T04:11:09;-1.80;1.00
15217;DHT22;7711;46.634;14.318;2022-12-18T04:13:37;-1.80;1.00
15217;DHT22;7711;46.634;14.318;2022-12-18T04:16:06;-1.80;1.00
15217;DHT22;7711;46.634;14.318;2022-12-18T04:18:34;-1.80;1.00
15217;DHT22;7711;46.634;14.318;2022-12-18T04:21:02;-1.80;1.00
15217;DHT22;7711;46.634;14.318;2022-12-18T04:23:30;-1.70;1.00
15217;DHT22;7711;46.634;14.318;2022-12-18T04:25:57;-1.70;1.00
15217;DHT22;7711;46.634;14.318;2022-12-18T04:28:25;-1.70;1.00
15217;DHT22;7711;46.634;14.318;2022-12-18T04:30:52;-1.70;1.00
15217;DHT22;7711;46.634;14.318;2022-12-18T04:33:19;-1.70;1.00
15217;DHT22;7711;46.634;14.318;2022-12-18T04:35:48;-1.70;1.00
15217;DHT22;7711;46.634;14.318;2022-12-18T04:38:15;-1.70;1.00
15217;DHT22;7711;46.634;14.318;2022-12-18T04:40:43;-1.70;1.00
15217;DHT22;7711;46.634;14.318;2022-12-18T04:43:10;-1.70;1.00
15217;DHT22;7711;46.634;14.318;2022-12-18T04:45:37;-1.70;1.00
15217;DHT22;7711;46.634;14.318;2022-12-18T04:48:05;-1.70;1.00
15217;DHT22;7711;46.634;14.318;2022-12-18T04:50:32;-1.70;1.00
15217;DHT22;7711;46.634;14.318;2022-12-18T04:53:00;-1.70;1.00
15217;DHT22;7711;46.634;14.318;2022-12-18T04:55:28;-1.70;1.00
15217;DHT22;7711;46.634;14.318;2022-12-18T04:57:55;-1.70;1.00
15217;DHT22;7711;46.634;14.318;2022-12-18T05:00:22;-1.60;1.00
15217;DHT22;7711;46.634;14.318;2022-12-18T05:02:51;-1.70;1.00
15217;DHT22;7711;46.634;14.318;2022-12-18T05:05:18;-1.70;1.00
15217;DHT22;7711;46.634;14.318;2022-12-18T05:07:45;-1.60;1.00
15217;DHT22;7711;46.634;14.318;2022-12-18T05:10:13;-1.70;1.00
15217;DHT22;7711;46.634;14.318;2022-12-18T05:12:40;-1.70;1.00
15217;DHT22;7711;46.634;14.318;2022-12-18T05:15:21;-1.70;1.00
15217;DHT22;7711;46.634;14.318;2022-12-18T05:17:48;-1.70;1.00
15217;DHT22;7711;46.634;14.318;2022-12-18T05:20:15;-1.70;1.00
15217;DHT22;7711;46.634;14.318;2022-12-18T05:22:43;-1.70;1.00
15217;DHT22;7711;46.634;14.318;2022-12-18T05:25:10;-1.60;1.00
15217;DHT22;7711;46.634;14.318;2022-12-18T05:27:39;-1.60;1.00
15217;DHT22;7711;46.634;14.318;2022-12-18T05:30:07;-1.70;1.00
15217;DHT22;7711;46.634;14.318;2022-12-18T05:32:34;-1.60;1.00
15217;DHT22;7711;46.634;14.318;2022-12-18T05:35:02;-1.60;1.00
15217;DHT22;7711;46.634;14.318;2022-12-18T05:37:29;-1.60;1.00
15217;DHT22;7711;46.634;14.318;2022-12-18T05:39:56;-1.60;1.00
15217;DHT22;7711;46.634;14.318;2022-12-18T05:42:23;-1.70;1.00
15217;DHT22;7711;46.634;14.318;2022-12-18T05:44:51;-1.70;1.00
15217;DHT22;7711;46.634;14.318;2022-12-18T05:47:18;-1.70;1.00
15217;DHT22;7711;46.634;14.318;2022-12-18T05:49:45;-1.60;1.00
15217;DHT22;7711;46.634;14.318;2022-12-18T05:52:12;-1.70;1.00
15217;DHT22;7711;46.634;14.318;2022-12-18T05:54:39;-1.70;1.00
15217;DHT22;7711;46.634;14.318;2022-12-18T05:57:06;-1.60;1.00
15217;DHT22;7711;46.634;14.318;2022-12-18T05:59:35;-1.60;1.00
15217;DHT22;7711;46.634;14.318;2022-12-18T06:02:03;-1.60;1.00
15217;DHT22;7711;46.634;14.318;2022-12-18T06:04:30;-1.70;1.00
15217;DHT22;7711;46.634;14.318;2022-12-18T06:06:57;-1.70;1.00
15217;DHT22;7711;46.634;14.318;2022-12-18T06:09:25;-1.70;1.00
15217;DHT22;7711;46.634;14.318;2022-12-18T06:11:52;-1.70;1.00
15217;DHT22;7711;46.634;14.318;2022-12-18T06:14:19;-1.70;1.00
15217;DHT22;7711;46.634;14.318;2022-12-18T06:16:46;-1.60;1.00
15217;DHT22;7711;46.634;14.318;2022-12-18T06:19:16;-1.60;1.00
15217;DHT22;7711;46.634;14.318;2022-12-18T06:21:43;-1.60;1.00
15217;DHT22;7711;46.634;14.318;2022-12-18T06:24:10;-1.60;1.00
15217;DHT22;7711;46.634;14.318;2022-12-18T06:26:38;-1.60;1.00
15217;DHT22;7711;46.634;14.318;2022-12-18T06:29:05;-1.60;1.00
15217;DHT22;7711;46.634;14.318;2022-12-18T06:31:33;-1.70;1.00
15217;DHT22;7711;46.634;14.318;2022-12-18T06:34:04;-1.60;1.00
15217;DHT22;7711;46.634;14.318;2022-12-18T06:36:33;-1.70;1.00
15217;DHT22;7711;46.634;14.318;2022-12-18T06:39:00;-1.70;1.00
15217;DHT22;7711;46.634;14.318;2022-12-18T06:41:27;-1.70;1.00
15217;DHT22;7711;46.634;14.318;2022-12-18T06:43:54;-1.70;1.00
15217;DHT22;7711;46.634;14.318;2022-12-18T06:46:21;-1.70;1.00
15217;DHT22;7711;46.634;14.318;2022-12-18T06:48:49;-1.60;1.00
15217;DHT22;7711;46.634;14.318;2022-12-18T06:51:18;-1.60;1.00
15217;DHT22;7711;46.634;14.318;2022-12-18T06:53:47;-1.60;1.00
15217;DHT22;7711;46.634;14.318;2022-12-18T06:56:14;-1.60;1.00
15217;DHT22;7711;46.634;14.318;2022-12-18T06:58:41;-1.60;1.00
15217;DHT22;7711;46.634;14.318;2022-12-18T07:01:10;-1.60;1.00
15217;DHT22;7711;46.634;14.318;2022-12-18T07:03:38;-1.60;1.00
15217;DHT22;7711;46.634;14.318;2022-12-18T07:06:05;-1.60;1.00
15217;DHT22;7711;46.634;14.318;2022-12-18T07:08:33;-1.60;1.00
15217;DHT22;7711;46.634;14.318;2022-12-18T07:11:03;-1.70;1.00
15217;DHT22;7711;46.634;14.318;2022-12-18T07:13:31;-1.60;1.00
15217;DHT22;7711;46.634;14.318;2022-12-18T07:16:06;-1.70;1.00
15217;DHT22;7711;46.634;14.318;2022-12-18T07:18:33;-1.60;1.00
15217;DHT22;7711;46.634;14.318;2022-12-18T07:21:03;-1.60;1.00
15217;DHT22;7711;46.634;14.318;2022-12-18T07:23:32;-1.50;1.00
15217;DHT22;7711;46.634;14.318;2022-12-18T07:26:03;-1.50;1.00
15217;DHT22;7711;46.634;14.318;2022-12-18T07:28:30;-1.50;1.00
15217;DHT22;7711;46.634;14.318;2022-12-18T07:30:57;-1.50;1.00
15217;DHT22;7711;46.634;14.318;2022-12-18T07:33:25;-1.50;1.00
15217;DHT22;7711;46.634;14.318;2022-12-18T07:35:52;-1.40;1.00
15217;DHT22;7711;46.634;14.318;2022-12-18T07:38:20;-1.40;1.00
15217;DHT22;7711;46.634;14.318;2022-12-18T07:40:47;-1.40;1.00
15217;DHT22;7711;46.634;14.318;2022-12-18T07:43:15;-1.30;1.00
15217;DHT22;7711;46.634;14.318;2022-12-18T07:45:42;-1.40;1.00
15217;DHT22;7711;46.634;14.318;2022-12-18T07:48:09;-1.30;1.00
15217;DHT22;7711;46.634;14.318;2022-12-18T07:50:37;-1.30;1.00
15217;DHT22;7711;46.634;14.318;2022-12-18T07:53:04;-1.30;1.00
15217;DHT22;7711;46.634;14.318;2022-12-18T07:55:31;-1.20;1.00
15217;DHT22;7711;46.634;14.318;2022-12-18T07:58:01;-1.20;1.00
15217;DHT22;7711;46.634;14.318;2022-12-18T08:00:29;-1.20;1.00
15217;DHT22;7711;46.634;14.318;2022-12-18T08:02:56;-1.20;1.00
15217;DHT22;7711;46.634;14.318;2022-12-18T08:05:24;-1.10;1.00
15217;DHT22;7711;46.634;14.318;2022-12-18T08:07:51;-1.10;99.90
15217;DHT22;7711;46.634;14.318;2022-12-18T08:10:18;-1.10;99.90
15217;DHT22;7711;46.634;14.318;2022-12-18T08:12:48;-1.00;99.90
15217;DHT22;7711;46.634;14.318;2022-12-18T08:15:15;-1.00;99.90
15217;DHT22;7711;46.634;14.318;2022-12-18T08:17:43;-1.00;99.90
15217;DHT22;7711;46.634;14.318;2022-12-18T08:20:12;-1.00;1.00
15217;DHT22;7711;46.634;14.318;2022-12-18T08:22:40;-1.00;1.00
15217;DHT22;7711;46.634;14.318;2022-12-18T08:25:08;-1.00;1.00
15217;DHT22;7711;46.634;14.318;2022-12-18T08:27:35;-1.00;1.00
15217;DHT22;7711;46.634;14.318;2022-12-18T08:30:03;-0.90;99.90
15217;DHT22;7711;46.634;14.318;2022-12-18T08:32:30;-0.80;1.00
15217;DHT22;7711;46.634;14.318;2022-12-18T08:34:59;-0.80;99.90
15217;DHT22;7711;46.634;14.318;2022-12-18T08:37:26;-0.80;1.00
15217;DHT22;7711;46.634;14.318;2022-12-18T08:39:53;-0.90;1.00
15217;DHT22;7711;46.634;14.318;2022-12-18T08:42:20;-0.90;1.00
15217;DHT22;7711;46.634;14.318;2022-12-18T08:45:06;-0.90;99.90
15217;DHT22;7711;46.634;14.318;2022-12-18T08:47:33;-0.60;94.10
15217;DHT22;7711;46.634;14.318;2022-12-18T08:50:01;-0.50;16.30
15217;DHT22;7711;46.634;14.318;2022-12-18T08:52:31;-0.50;1.00
15217;DHT22;7711;46.634;14.318;2022-12-18T08:54:58;-0.50;1.00
15217;DHT22;7711;46.634;14.318;2022-12-18T08:57:25;-0.50;99.90
15217;DHT22;7711;46.634;14.318;2022-12-18T08:59:52;-0.40;1.00
15217;DHT22;7711;46.634;14.318;2022-12-18T09:02:19;-0.40;1.00
15217;DHT22;7711;46.634;14.318;2022-12-18T09:04:47;-0.60;1.00
15217;DHT22;7711;46.634;14.318;2022-12-18T09:07:15;-0.40;1.00
15217;DHT22;7711;46.634;14.318;2022-12-18T09:09:42;-0.40;1.00
15217;DHT22;7711;46.634;14.318;2022-12-18T09:12:09;-0.40;10.00
15217;DHT22;7711;46.634;14.318;2022-12-18T09:14:36;-0.40;1.00
15217;DHT22;7711;46.634;14.318;2022-12-18T09:17:03;-0.20;1.00
15217;DHT22;7711;46.634;14.318;2022-12-18T09:19:31;-0.10;99.90
15217;DHT22;7711;46.634;14.318;2022-12-18T09:21:58;0.00;99.90
15217;DHT22;7711;46.634;14.318;2022-12-18T09:24:26;0.10;99.90
15217;DHT22;7711;46.634;14.318;2022-12-18T09:26:53;0.00;1.00
15217;DHT22;7711;46.634;14.318;2022-12-18T09:29:21;0.00;1.00
15217;DHT22;7711;46.634;14.318;2022-12-18T09:31:48;0.10;1.00
15217;DHT22;7711;46.634;14.318;2022-12-18T09:34:16;0.10;1.00
15217;DHT22;7711;46.634;14.318;2022-12-18T09:36:43;0.10;1.00
15217;DHT22;7711;46.634;14.318;2022-12-18T09:39:10;0.10;1.00
15217;DHT22;7711;46.634;14.318;2022-12-18T09:41:51;0.10;99.90
15217;DHT22;7711;46.634;14.318;2022-12-18T09:44:23;-0.10;99.90
15217;DHT22;7711;46.634;14.318;2022-12-18T09:46:57;-0.10;99.90
15217;DHT22;7711;46.634;14.318;2022-12-18T09:49:28;0.00;99.90
15217;DHT22;7711;46.634;14.318;2022-12-18T09:51:59;0.00;1.00
15217;DHT22;7711;46.634;14.318;2022-12-18T09:54:33;0.20;1.00
15217;DHT22;7711;46.634;14.318;2022-12-18T09:57:04;0.40;1.00
15217;DHT22;7711;46.634;14.318;2022-12-18T09:59:35;0.50;1.00
15217;DHT22;7711;46.634;14.318;2022-12-18T10:02:13;0.20;1.00
15217;DHT22;7711;46.634;14.318;2022-12-18T10:04:41;0.40;1.00
15217;DHT22;7711;46.634;14.318;2022-12-18T10:07:12;0.40;1.00
15217;DHT22;7711;46.634;14.318;2022-12-18T10:09:44;0.60;1.00
15217;DHT22;7711;46.634;14.318;2022-12-18T10:12:21;0.70;1.00
15217;DHT22;7711;46.634;14.318;2022-12-18T10:14:54;0.80;1.00
15217;DHT22;7711;46.634;14.318;2022-12-18T10:17:28;0.80;1.00
15217;DHT22;7711;46.634;14.318;2022-12-18T10:20:00;0.90;1.00
15217;DHT22;7711;46.634;14.318;2022-12-18T10:22:42;1.00;1.00
15217;DHT22;7711;46.634;14.318;2022-12-18T10:25:19;1.10;1.00
15217;DHT22;7711;46.634;14.318;2022-12-18T10:27:52;1.10;1.00
15217;DHT22;7711;46.634;14.318;2022-12-18T10:30:22;1.00;1.00
15217;DHT22;7711;46.634;14.318;2022-12-18T10:32:49;0.70;1.00
15217;DHT22;7711;46.634;14.318;2022-12-18T10:35:20;0.50;1.00
15217;DHT22;7711;46.634;14.318;2022-12-18T10:38:06;0.40;1.00
15217;DHT22;7711;46.634;14.318;2022-12-18T10:40:48;0.50;1.00
15217;DHT22;7711;46.634;14.318;2022-12-18T10:43:21;0.70;1.00
15217;DHT22;7711;46.634;14.318;2022-12-18T10:46:15;0.90;1.00
15217;DHT22;7711;46.634;14.318;2022-12-18T10:48:52;1.10;1.00
15217;DHT22;7711;46.634;14.318;2022-12-18T10:51:21;1.10;1.00
15217;DHT22;7711;46.634;14.318;2022-12-18T10:53:54;1.10;1.00
15217;DHT22;7711;46.634;14.318;2022-12-18T10:56:22;0.80;1.00
15217;DHT22;7711;46.634;14.318;2022-12-18T10:58:58;1.00;1.00
15217;DHT22;7711;46.634;14.318;2022-12-18T11:01:26;1.30;1.00
15217;DHT22;7711;46.634;14.318;2022-12-18T11:04:01;1.30;1.00
15217;DHT22;7711;46.634;14.318;2022-12-18T11:06:34;1.20;99.90
15217;DHT22;7711;46.634;14.318;2022-12-18T11:09:20;1.20;99.90
15217;DHT22;7711;46.634;14.318;2022-12-18T11:11:49;1.40;1.00
15217;DHT22;7711;46.634;14.318;2022-12-18T11:14:22;1.40;99.90
15217;DHT22;7711;46.634;14.318;2022-12-18T11:16:51;1.30;99.90
15217;DHT22;7711;46.634;14.318;2022-12-18T11:19:31;1.20;99.90
15217;DHT22;7711;46.634;14.318;2022-12-18T11:22:00;1.20;99.90
15217;DHT22;7711;46.634;14.318;2022-12-18T11:24:31;1.30;99.90
15217;DHT22;7711;46.634;14.318;2022-12-18T11:27:01;1.40;99.90
15217;DHT22;7711;46.634;14.318;2022-12-18T11:29:35;1.50;99.90
15217;DHT22;7711;46.634;14.318;2022-12-18T11:32:31;1.60;99.90
15217;DHT22;7711;46.634;14.318;2022-12-18T11:35:04;1.60;99.90
15217;DHT22;7711;46.634;14.318;2022-12-18T11:37:36;1.60;99.90
15217;DHT22;7711;46.634;14.318;2022-12-18T11:40:09;1.60;99.90
15217;DHT22;7711;46.634;14.318;2022-12-18T11:42:43;1.70;99.90
15217;DHT22;7711;46.634;14.318;2022-12-18T11:45:24;1.70;99.90
15217;DHT22;7711;46.634;14.318;2022-12-18T11:47:57;1.70;99.90
15217;DHT22;7711;46.634;14.318;2022-12-18T11:50:28;1.40;99.90
15217;DHT22;7711;46.634;14.318;2022-12-18T11:52:56;1.50;99.90
15217;DHT22;7711;46.634;14.318;2022-12-18T11:55:28;1.40;99.90
15217;DHT22;7711;46.634;14.318;2022-12-18T11:58:01;1.40;99.90
15217;DHT22;7711;46.634;14.318;2022-12-18T12:00:31;1.40;99.90
15217;DHT22;7711;46.634;14.318;2022-12-18T12:03:23;1.60;99.90
15217;DHT22;7711;46.634;14.318;2022-12-18T12:06:01;1.90;99.90
15217;DHT22;7711;46.634;14.318;2022-12-18T12:08:34;1.90;99.90
15217;DHT22;7711;46.634;14.318;2022-12-18T12:11:09;1.90;99.90
15217;DHT22;7711;46.634;14.318;2022-12-18T12:13:45;2.00;99.90
15217;DHT22;7711;46.634;14.318;2022-12-18T12:16:21;2.10;99.90
15217;DHT22;7711;46.634;14.318;2022-12-18T12:19:01;2.30;99.90
15217;DHT22;7711;46.634;14.318;2022-12-18T12:21:37;2.30;99.90
15217;DHT22;7711;46.634;14.318;2022-12-18T12:24:18;2.30;99.90
15217;DHT22;7711;46.634;14.318;2022-12-18T12:26:52;2.10;99.90
15217;DHT22;7711;46.634;14.318;2022-12-18T12:29:32;2.30;99.90
15217;DHT22;7711;46.634;14.318;2022-12-18T12:32:14;2.20;99.90
15217;DHT22;7711;46.634;14.318;2022-12-18T12:34:52;1.80;99.90
15217;DHT22;7711;46.634;14.318;2022-12-18T12:37:32;1.40;99.90
15217;DHT22;7711;46.634;14.318;2022-12-18T12:40:04;1.80;99.90
15217;DHT22;7711;46.634;14.318;2022-12-18T12:42:35;1.60;99.90
15217;DHT22;7711;46.634;14.318;2022-12-18T12:45:28;1.60;99.90
15217;DHT22;7711;46.634;14.318;2022-12-18T12:48:00;1.30;99.90
15217;DHT22;7711;46.634;14.318;2022-12-18T12:50:31;1.40;99.90
15217;DHT22;7711;46.634;14.318;2022-12-18T12:53:01;1.50;99.90
15217;DHT22;7711;46.634;14.318;2022-12-18T12:55:32;1.40;99.90
15217;DHT22;7711;46.634;14.318;2022-12-18T12:58:10;1.30;99.90
15217;DHT22;7711;46.634;14.318;2022-12-18T13:00:46;1.30;99.90
15217;DHT22;7711;46.634;14.318;2022-12-18T13:03:24;1.40;99.90
15217;DHT22;7711;46.634;14.318;2022-12-18T13:05:58;1.40;99.90
15217;DHT22;7711;46.634;14.318;2022-12-18T13:08:29;1.40;99.90
15217;DHT22;7711;46.634;14.318;2022-12-18T13:10:57;1.40;99.90
15217;DHT22;7711;46.634;14.318;2022-12-18T13:13:48;1.40;99.90
15217;DHT22;7711;46.634;14.318;2022-12-18T13:16:19;1.50;99.90
15217;DHT22;7711;46.634;14.318;2022-12-18T13:18:51;1.40;99.90
15217;DHT22;7711;46.634;14.318;2022-12-18T13:21:23;1.40;99.90
15217;DHT22;7711;46.634;14.318;2022-12-18T13:23:51;1.20;99.90
15217;DHT22;7711;46.634;14.318;2022-12-18T13:26:31;1.20;99.90
15217;DHT22;7711;46.634;14.318;2022-12-18T13:29:00;1.20;99.90
15217;DHT22;7711;46.634;14.318;2022-12-18T13:34:35;1.20;99.90
15217;DHT22;7711;46.634;14.318;2022-12-18T13:37:40;1.40;99.90
15217;DHT22;7711;46.634;14.318;2022-12-18T13:43:33;1.40;99.90
15217;DHT22;7711;46.634;14.318;2022-12-18T13:46:05;1.30;99.90
15217;DHT22;7711;46.634;14.318;2022-12-18T13:48:36;1.20;99.90
15217;DHT22;7711;46.634;14.318;2022-12-18T13:51:07;1.20;99.90
15217;DHT22;7711;46.634;14.318;2022-12-18T13:53:39;1.10;99.90
15217;DHT22;7711;46.634;14.318;2022-12-18T13:56:09;1.10;99.90
15217;DHT22;7711;46.634;14.318;2022-12-18T13:58:36;1.10;99.90
15217;DHT22;7711;46.634;14.318;2022-12-18T14:01:03;1.10;99.90
15217;DHT22;7711;46.634;14.318;2022-12-18T14:03:30;1.10;99.90
15217;DHT22;7711;46.634;14.318;2022-12-18T14:06:03;1.10;1.00
15217;DHT22;7711;46.634;14.318;2022-12-18T14:08:39;1.10;1.00
15217;DHT22;7711;46.634;14.318;2022-12-18T14:11:08;1.10;1.00
15217;DHT22;7711;46.634;14.318;2022-12-18T14:13:46;0.80;99.90
15217;DHT22;7711;46.634;14.318;2022-12-18T14:16:15;0.80;99.90
15217;DHT22;7711;46.634;14.318;2022-12-18T14:18:45;0.60;99.90
15217;DHT22;7711;46.634;14.318;2022-12-18T14:21:19;0.60;1.00
15217;DHT22;7711;46.634;14.318;2022-12-18T14:23:49;0.50;1.00
15217;DHT22;7711;46.634;14.318;2022-12-18T14:26:25;0.50;1.00
15217;DHT22;7711;46.634;14.318;2022-12-18T14:28:54;0.50;1.00
15217;DHT22;7711;46.634;14.318;2022-12-18T14:31:24;0.60;1.00
15217;DHT22;7711;46.634;14.318;2022-12-18T14:33:52;0.70;1.00
15217;DHT22;7711;46.634;14.318;2022-12-18T14:36:21;0.60;1.00
15217;DHT22;7711;46.634;14.318;2022-12-18T14:38:51;0.60;1.00
15217;DHT22;7711;46.634;14.318;2022-12-18T14:41:20;0.60;1.00
15217;DHT22;7711;46.634;14.318;2022-12-18T14:43:48;0.50;1.00
15217;DHT22;7711;46.634;14.318;2022-12-18T14:46:30;0.50;1.00
15217;DHT22;7711;46.634;14.318;2022-12-18T14:49:01;0.50;1.00
15217;DHT22;7711;46.634;14.318;2022-12-18T14:51:30;0.50;1.00
15217;DHT22;7711;46.634;14.318;2022-12-18T14:54:00;0.50;99.90
15217;DHT22;7711;46.634;14.318;2022-12-18T14:56:30;0.40;99.90
15217;DHT22;7711;46.634;14.318;2022-12-18T14:59:00;0.30;99.90
15217;DHT22;7711;46.634;14.318;2022-12-18T15:01:31;0.30;1.00
15217;DHT22;7711;46.634;14.318;2022-12-18T15:04:01;0.30;1.00
15217;DHT22;7711;46.634;14.318;2022-12-18T15:06:34;0.30;1.00
15217;DHT22;7711;46.634;14.318;2022-12-18T15:09:20;0.20;1.00
15217;DHT22;7711;46.634;14.318;2022-12-18T15:11:49;0.30;91.60
15217;DHT22;7711;46.634;14.318;2022-12-18T15:14:28;0.20;99.90
15217;DHT22;7711;46.634;14.318;2022-12-18T15:17:01;0.20;99.90
15217;DHT22;7711;46.634;14.318;2022-12-18T15:19:35;0.20;71.00
15217;DHT22;7711;46.634;14.318;2022-12-18T15:22:04;0.20;1.00
15217;DHT22;7711;46.634;14.318;2022-12-18T15:24:34;0.10;99.90
15217;DHT22;7711;46.634;14.318;2022-12-18T15:27:03;0.10;1.00
15217;DHT22;7711;46.634;14.318;2022-12-18T15:29:33;0.10;1.00
15217;DHT22;7711;46.634;14.318;2022-12-18T15:32:03;0.10;99.90
15217;DHT22;7711;46.634;14.318;2022-12-18T15:34:32;0.10;1.00
15217;DHT22;7711;46.634;14.318;2022-12-18T15:36:59;0.10;1.00
15217;DHT22;7711;46.634;14.318;2022-12-18T15:39:27;0.00;1.00
15217;DHT22;7711;46.634;14.318;2022-12-18T15:41:57;0.10;1.00
15217;DHT22;7711;46.634;14.318;2022-12-18T15:44:44;0.00;99.90
15217;DHT22;7711;46.634;14.318;2022-12-18T15:47:14;0.00;1.00
15217;DHT22;7711;46.634;14.318;2022-12-18T15:49:42;0.00;1.00
15217;DHT22;7711;46.634;14.318;2022-12-18T15:52:14;0.00;1.00
15217;DHT22;7711;46.634;14.318;2022-12-18T15:54:52;0.00;1.00
15217;DHT22;7711;46.634;14.318;2022-12-18T15:57:38;0.00;99.90
15217;DHT22;7711;46.634;14.318;2022-12-18T16:00:11;0.00;1.00
15217;DHT22;7711;46.634;14.318;2022-12-18T16:02:39;0.00;81.20
15217;DHT22;7711;46.634;14.318;2022-12-18T16:05:14;0.00;37.50
15217;DHT22;7711;46.634;14.318;2022-12-18T16:07:43;-0.10;1.00
15217;DHT22;7711;46.634;14.318;2022-12-18T16:10:10;0.00;1.00
15217;DHT22;7711;46.634;14.318;2022-12-18T16:12:41;0.00;1.00
15217;DHT22;7711;46.634;14.318;2022-12-18T16:15:10;0.00;99.90
15217;DHT22;7711;46.634;14.318;2022-12-18T16:17:40;0.00;1.00